createdAt,value
2019-05-20T18:14:46.740Z,10.13
2019-05-20T18:18:53.459Z,13.43
2019-05-20T18:21:25.023Z,13.50
2019-05-20T18:23:55.809Z,13.73
2019-05-20T18:26:26.701Z,13.67
2019-05-20T18:28:57.509Z,14.37
2019-05-20T18:31:34.896Z,14.10
2019-05-20T18:34:05.732Z,13.23
2019-05-20T18:36:36.543Z,13.83
2019-05-20T18:39:09.613Z,17.43
2019-05-20T18:41:40.388Z,14.83
2019-05-20T18:44:13.279Z,14.93
2019-05-20T18:46:43.990Z,10.43
2019-05-20T18:49:14.772Z,11.07
2019-05-20T18:51:45.549Z,9.67
2019-05-20T18:54:16.377Z,11.50
2019-05-20T18:56:47.147Z,9.53
2019-05-20T18:59:17.981Z,9.20
2019-05-20T19:02:03.869Z,9.73
2019-05-20T19:04:21.835Z,11.60
2019-05-20T19:06:52.617Z,9.53
2019-05-20T19:09:23.402Z,10.27
2019-05-20T19:11:54.217Z,9.60
2019-05-20T19:14:24.964Z,9.90
2019-05-20T19:16:55.762Z,9.90
2019-05-20T19:19:26.644Z,10.00
2019-05-20T19:21:57.424Z,10.57
2019-05-20T19:24:28.348Z,10.07
2019-05-20T19:26:59.129Z,11.37
2019-05-20T19:29:29.895Z,10.30
2019-05-20T19:32:02.162Z,10.30
2019-05-20T19:34:33.157Z,10.33
2019-05-20T19:37:03.963Z,11.80
2019-05-20T19:39:34.747Z,9.23
2019-05-20T19:42:05.607Z,10.50
2019-05-20T19:45:35.132Z,10.07
2019-05-20T22:00:13.254Z,9.93
2019-05-20T22:03:01.978Z,7.20
2019-05-20T22:05:32.984Z,8.23
2019-05-20T22:08:04.300Z,8.93
2019-05-20T22:10:35.161Z,7.60
2019-05-20T22:13:05.935Z,8.97
2019-05-20T22:15:36.700Z,9.50
2019-05-20T22:18:07.519Z,10.70
2019-05-20T22:20:38.260Z,10.10
2019-05-20T22:23:27.551Z,10.50
2019-05-20T22:25:58.325Z,9.70
2019-05-20T22:29:20.669Z,10.27
